createdAt,value
2018-11-04T00:00:17.722Z,21.33
2018-11-04T00:02:47.586Z,25.73
2018-11-04T00:05:17.412Z,22.33
2018-11-04T00:07:47.921Z,26.37
2018-11-04T00:10:17.274Z,23.27
2018-11-04T00:12:46.651Z,23.80
2018-11-04T00:15:16.954Z,26.23
2018-11-04T00:17:46.353Z,24.60
2018-11-04T00:20:17.036Z,25.20
2018-11-04T00:22:46.367Z,26.43
2018-11-04T00:25:16.957Z,29.00
2018-11-04T00:27:46.353Z,25.73
2018-11-04T00:30:17.007Z,26.90
2018-11-04T00:32:46.382Z,24.63
2018-11-04T00:35:17.132Z,19.97
2018-11-04T00:37:46.534Z,22.87
2018-11-04T00:40:16.884Z,26.45
2018-11-04T00:42:46.262Z,17.03
2018-11-04T00:45:16.977Z,23.53
2018-11-04T00:47:46.286Z,27.00
2018-11-04T00:50:17.414Z,27.87
2018-11-04T00:52:46.832Z,27.37
2018-11-04T00:55:16.950Z,27.90
2018-11-04T00:57:46.354Z,26.30
2018-11-04T01:00:18.674Z,25.47
2018-11-04T01:02:49.455Z,28.17
2018-11-04T01:05:19.242Z,26.00
2018-11-04T01:07:48.634Z,20.80
2018-11-04T01:10:18.023Z,24.20
2018-11-04T01:12:47.426Z,22.20
2018-11-04T01:15:17.141Z,22.55
2018-11-04T01:17:46.522Z,20.27
2018-11-04T01:20:17.823Z,24.47
2018-11-04T01:22:47.207Z,19.67
2018-11-04T01:25:17.089Z,21.45
2018-11-04T01:27:46.462Z,26.50
2018-11-04T01:35:17.992Z,20.67
2018-11-04T01:37:47.353Z,22.53
2018-11-04T01:40:17.282Z,25.65
2018-11-04T01:42:46.689Z,25.90
2018-11-04T01:45:17.326Z,27.43
2018-11-04T01:47:46.727Z,28.40
2018-11-04T01:50:17.257Z,24.80
2018-11-04T01:52:46.666Z,23.27
2018-11-04T01:55:17.335Z,27.43
2018-11-04T01:57:46.753Z,25.10
2018-11-04T02:00:17.885Z,22.23
2018-11-04T02:02:47.615Z,23.10
2018-11-04T02:05:17.469Z,30.40
2018-11-04T02:07:46.862Z,31.07
2018-11-04T02:10:17.575Z,24.87
2018-11-04T02:12:46.982Z,22.13
2018-11-04T02:15:17.783Z,21.52
2018-11-04T02:17:47.579Z,25.10
2018-11-04T02:20:17.701Z,20.97
2018-11-04T02:22:47.122Z,28.67
2018-11-04T02:25:17.621Z,24.95
2018-11-04T02:27:47.014Z,24.97
2018-11-04T02:30:17.900Z,18.74
2018-11-04T02:32:47.630Z,25.90
2018-11-04T02:35:17.451Z,25.85
2018-11-04T02:37:46.867Z,21.63
2018-11-04T02:40:17.487Z,19.50
2018-11-04T02:42:46.890Z,20.93
2018-11-04T02:45:17.534Z,26.60
2018-11-04T02:47:46.945Z,22.50
2018-11-04T02:50:17.617Z,20.37
2018-11-04T02:52:47.018Z,20.73
2018-11-04T02:55:17.653Z,24.00
2018-11-04T02:57:47.072Z,19.90
2018-11-04T03:00:17.718Z,25.60
2018-11-04T03:02:47.110Z,18.77
2018-11-04T03:05:17.827Z,22.27
2018-11-04T03:07:47.244Z,20.53
2018-11-04T03:10:17.914Z,25.77
2018-11-04T03:12:47.331Z,20.80
2018-11-04T03:15:17.869Z,22.32
2018-11-04T03:17:47.266Z,20.37
2018-11-04T03:20:17.811Z,19.58
2018-11-04T03:22:47.210Z,21.77
2018-11-04T03:25:17.858Z,19.97
2018-11-04T03:27:47.258Z,20.33
2018-11-04T03:30:17.858Z,23.97
2018-11-04T03:32:47.257Z,21.87
2018-11-04T03:35:17.886Z,17.07
2018-11-04T03:37:47.266Z,24.63
2018-11-04T03:40:17.898Z,18.30
2018-11-04T03:42:47.290Z,23.77
2018-11-04T03:45:17.910Z,19.50
2018-11-04T03:47:47.294Z,24.20
2018-11-04T03:50:17.931Z,21.90
2018-11-04T03:52:47.318Z,22.93
2018-11-04T03:55:17.974Z,19.23
2018-11-04T03:57:47.365Z,24.80
2018-11-04T04:00:17.988Z,22.00
2018-11-04T04:02:47.389Z,21.70
2018-11-04T04:05:17.994Z,21.30
2018-11-04T04:07:47.462Z,21.87
2018-11-04T04:10:18.115Z,16.67
2018-11-04T04:12:47.503Z,17.97
2018-11-04T04:15:18.127Z,21.37
2018-11-04T04:17:47.519Z,31.23
2018-11-04T04:20:17.997Z,20.10
2018-11-04T04:22:47.407Z,24.63
2018-11-04T04:25:18.023Z,23.70
2018-11-04T04:27:47.439Z,21.20
2018-11-04T04:30:18.086Z,22.27
2018-11-04T04:32:47.460Z,25.00
2018-11-04T04:35:18.194Z,24.43
2018-11-04T04:37:47.566Z,22.97
2018-11-04T04:40:18.190Z,20.50
2018-11-04T04:42:47.588Z,19.90
2018-11-04T04:45:18.214Z,20.83
2018-11-04T04:47:47.616Z,20.47
2018-11-04T04:50:18.245Z,27.20
2018-11-04T04:52:47.646Z,22.70
2018-11-04T04:55:18.270Z,19.27
2018-11-04T04:57:47.647Z,20.27
2018-11-04T05:00:18.251Z,20.60
2018-11-04T05:02:47.612Z,21.30
2018-11-04T05:05:18.363Z,23.53
2018-11-04T05:07:47.730Z,24.43
2018-11-04T05:10:18.218Z,21.50
2018-11-04T05:12:47.577Z,24.10
2018-11-04T05:15:18.208Z,21.20
2018-11-04T05:17:47.578Z,23.30
2018-11-04T05:20:18.179Z,22.60
2018-11-04T05:22:47.578Z,20.03
2018-11-04T05:25:18.206Z,19.67
2018-11-04T05:27:47.602Z,22.07
2018-11-04T05:30:18.360Z,19.97
2018-11-04T05:32:47.771Z,18.57
2018-11-04T05:35:18.236Z,15.90
2018-11-04T05:37:47.634Z,22.13
2018-11-04T05:40:18.239Z,21.10
2018-11-04T05:42:47.645Z,18.53
2018-11-04T05:45:18.255Z,20.77
2018-11-04T05:47:47.675Z,22.90
2018-11-04T05:50:18.293Z,21.40
2018-11-04T05:52:47.694Z,19.43
2018-11-04T05:55:18.318Z,19.43
2018-11-04T05:57:47.718Z,19.53
2018-11-04T06:00:18.435Z,18.40
2018-11-04T06:02:47.822Z,22.00
2018-11-04T06:05:18.518Z,17.67
2018-11-04T06:07:47.927Z,22.23
2018-11-04T06:10:18.455Z,20.60
2018-11-04T06:12:47.842Z,25.73
2018-11-04T06:15:18.453Z,20.57
2018-11-04T06:17:47.862Z,20.07
2018-11-04T06:20:18.526Z,25.20
2018-11-04T06:22:47.929Z,21.53
2018-11-04T06:25:18.541Z,23.00
2018-11-04T06:27:47.954Z,22.90
2018-11-04T06:30:18.462Z,20.00
2018-11-04T06:32:47.862Z,21.43
2018-11-04T06:35:18.482Z,26.83
2018-11-04T06:37:47.867Z,19.90
2018-11-04T06:40:18.558Z,20.40
2018-11-04T06:42:47.965Z,22.57
2018-11-04T06:45:18.470Z,27.22
2018-11-04T06:47:47.858Z,19.30
2018-11-04T06:50:18.526Z,21.27
2018-11-04T06:52:47.918Z,20.73
2018-11-04T06:55:18.552Z,21.57
2018-11-04T06:57:47.967Z,19.93
2018-11-04T07:00:18.462Z,19.78
2018-11-04T07:02:47.880Z,21.23
2018-11-04T07:05:18.539Z,18.97
2018-11-04T07:07:47.933Z,18.60
2018-11-04T07:10:18.570Z,19.53
2018-11-04T07:12:47.967Z,19.43
2018-11-04T07:15:18.507Z,18.62
2018-11-04T07:17:47.912Z,27.27
2018-11-04T07:20:18.534Z,21.07
2018-11-04T07:22:47.972Z,20.30
2018-11-04T07:25:18.621Z,22.33
2018-11-04T07:27:48.026Z,21.40
2018-11-04T07:30:18.654Z,18.87
2018-11-04T07:32:48.055Z,20.20
2018-11-04T07:35:18.730Z,19.30
2018-11-04T07:37:48.117Z,21.00
2018-11-04T07:40:18.734Z,17.63
2018-11-04T07:42:48.136Z,19.57
2018-11-04T07:45:18.786Z,22.63
2018-11-04T07:47:48.174Z,20.40
2018-11-04T07:50:18.819Z,17.77
2018-11-04T07:52:48.183Z,19.10
2018-11-04T07:55:18.796Z,22.00
2018-11-04T07:57:48.204Z,27.90
2018-11-04T08:00:18.831Z,22.20
2018-11-04T08:02:48.259Z,22.00
2018-11-04T08:05:18.739Z,23.68
2018-11-04T08:07:48.137Z,19.50
2018-11-04T08:10:18.738Z,19.17
2018-11-04T08:12:48.152Z,23.83
2018-11-04T08:15:18.774Z,22.63
2018-11-04T08:17:48.194Z,21.43
2018-11-04T08:20:18.806Z,28.07
2018-11-04T08:22:48.192Z,19.57
2018-11-04T08:25:18.794Z,21.03
2018-11-04T08:27:48.272Z,21.20
2018-11-04T08:30:18.822Z,17.70
2018-11-04T08:32:48.199Z,22.50
2018-11-04T08:35:18.817Z,26.50
2018-11-04T08:37:48.206Z,22.07
2018-11-04T08:40:18.902Z,22.87
2018-11-04T08:42:48.250Z,27.33
2018-11-04T08:45:18.922Z,22.83
2018-11-04T08:47:48.316Z,24.57
2018-11-04T08:50:18.922Z,22.00
2018-11-04T08:52:48.386Z,28.10
2018-11-04T08:55:19.002Z,25.70
2018-11-04T08:57:48.394Z,22.60
2018-11-04T09:00:19.030Z,22.70
2018-11-04T09:02:48.390Z,28.47
2018-11-04T09:05:19.012Z,22.10
2018-11-04T09:07:48.410Z,21.70
2018-11-04T09:10:19.019Z,26.13
2018-11-04T09:12:48.398Z,16.40
2018-11-04T09:15:19.036Z,24.33
2018-11-04T09:17:48.442Z,27.43
2018-11-04T09:20:18.958Z,21.06
2018-11-04T09:22:48.322Z,23.77
2018-11-04T09:25:18.962Z,26.03
2018-11-04T09:27:48.434Z,20.07
2018-11-04T09:30:19.047Z,20.93
2018-11-04T09:32:48.440Z,20.80
2018-11-04T09:35:19.055Z,21.56
2018-11-04T09:37:48.363Z,20.47
2018-11-04T09:40:18.986Z,19.53
2018-11-04T09:42:48.414Z,25.43
2018-11-04T09:45:19.190Z,21.13
2018-11-04T09:47:48.567Z,21.97
2018-11-04T09:50:19.094Z,20.10
2018-11-04T09:52:48.494Z,23.90
2018-11-04T09:55:19.077Z,20.72
2018-11-04T09:57:48.453Z,23.00
2018-11-04T10:00:19.111Z,18.23
2018-11-04T10:02:48.572Z,19.00
2018-11-04T10:05:19.054Z,18.22
2018-11-04T10:07:48.453Z,20.30
2018-11-04T10:10:18.974Z,17.68
2018-11-04T10:12:48.366Z,21.00
2018-11-04T10:15:18.992Z,29.70
2018-11-04T10:17:48.382Z,24.67
2018-11-04T10:20:19.270Z,22.80
2018-11-04T10:22:48.402Z,21.17
2018-11-04T10:25:19.017Z,19.77
2018-11-04T10:27:48.423Z,21.77
2018-11-04T10:30:19.062Z,20.80
2018-11-04T10:32:48.430Z,22.67
2018-11-04T10:35:19.030Z,22.13
2018-11-04T10:37:48.438Z,25.17
2018-11-04T10:40:17.896Z,17.80
2018-11-04T10:42:47.270Z,16.77
2018-11-04T10:45:16.659Z,19.30
2018-11-04T10:47:46.039Z,18.03
2018-11-04T10:50:15.449Z,20.00
2018-11-04T10:52:44.850Z,16.70
2018-11-04T10:55:14.222Z,20.97
2018-11-04T10:57:43.591Z,18.87
2018-11-04T11:00:18.975Z,24.10
2018-11-04T11:02:48.339Z,19.60
2018-11-04T11:05:17.726Z,18.57
2018-11-04T11:07:47.114Z,20.80
2018-11-04T11:10:16.502Z,18.83
2018-11-04T11:12:45.907Z,19.90
2018-11-04T11:15:15.310Z,21.93
2018-11-04T11:17:44.706Z,18.23
2018-11-04T11:20:14.146Z,18.27
2018-11-04T11:22:44.311Z,25.73
2018-11-04T11:25:13.618Z,26.70
2018-11-04T11:27:43.039Z,22.67
2018-11-04T11:30:12.572Z,25.80
2018-11-04T11:32:41.931Z,23.40
2018-11-04T11:35:11.337Z,21.60
2018-11-04T11:37:40.762Z,23.00
2018-11-04T11:40:10.542Z,26.10
2018-11-04T11:42:39.961Z,27.97
2018-11-04T11:45:09.973Z,26.03
2018-11-04T11:47:39.405Z,24.10
2018-11-04T11:50:09.202Z,28.53
2018-11-04T11:52:38.704Z,32.20
2018-11-04T11:55:08.202Z,24.10
2018-11-04T11:57:37.608Z,23.00
2018-11-04T12:00:09.463Z,25.03
2018-11-04T12:02:39.698Z,22.53
2018-11-04T12:05:09.662Z,27.30
2018-11-04T12:07:39.618Z,21.67
2018-11-04T12:10:12.220Z,27.33
2018-11-04T12:12:41.925Z,27.75
2018-11-04T12:15:12.534Z,21.23
2018-11-04T12:17:43.151Z,23.60
2018-11-04T12:20:13.343Z,25.80
2018-11-04T12:22:42.894Z,28.13
2018-11-04T12:25:13.325Z,35.40
2018-11-04T12:27:43.027Z,33.00
2018-11-04T12:30:15.004Z,29.80
2018-11-04T12:32:44.851Z,27.93
2018-11-04T12:35:14.855Z,27.80
2018-11-04T12:37:44.143Z,29.97
2018-11-04T12:40:14.075Z,27.60
2018-11-04T12:42:43.406Z,35.70
2018-11-04T12:45:13.471Z,27.80
2018-11-04T12:47:43.168Z,30.43
2018-11-04T12:50:13.298Z,21.97
2018-11-04T12:52:42.680Z,30.07
2018-11-04T12:55:12.069Z,25.10
2018-11-04T12:57:41.471Z,28.70
2018-11-04T13:00:13.559Z,24.97
2018-11-04T13:02:43.609Z,22.40
2018-11-04T13:05:13.386Z,33.70
2018-11-04T13:07:43.046Z,31.70
2018-11-04T13:10:14.133Z,30.53
2018-11-04T13:12:43.670Z,24.67
2018-11-04T13:15:14.378Z,33.53
2018-11-04T13:17:44.058Z,28.85
2018-11-04T13:20:13.642Z,27.70
2018-11-04T13:22:43.042Z,26.03
2018-11-04T13:25:12.434Z,25.33
2018-11-04T13:27:41.855Z,26.17
2018-11-04T13:30:12.766Z,27.27
2018-11-04T13:32:42.172Z,28.13
2018-11-04T13:35:11.571Z,28.80
2018-11-04T13:37:40.974Z,28.23
2018-11-04T13:40:11.690Z,23.70
2018-11-04T13:42:41.512Z,32.78
2018-11-04T13:45:11.520Z,40.23
2018-11-04T13:47:40.922Z,28.10
2018-11-04T13:50:12.674Z,30.70
2018-11-04T13:52:42.510Z,35.23
2018-11-04T13:55:11.928Z,36.20
2018-11-04T13:57:41.321Z,31.87
2018-11-04T14:00:14.263Z,28.90
2018-11-04T14:02:44.646Z,30.37
2018-11-04T14:05:14.002Z,30.17
2018-11-04T14:07:43.422Z,28.57
2018-11-04T14:10:14.258Z,29.40
2018-11-04T14:12:44.492Z,23.93
2018-11-04T14:15:14.517Z,27.23
2018-11-04T14:17:43.930Z,25.60
2018-11-04T14:20:13.819Z,28.53
2018-11-04T14:22:43.212Z,26.50
2018-11-04T14:25:13.119Z,28.93
2018-11-04T14:27:42.514Z,33.97
2018-11-04T14:30:16.242Z,39.40
2018-11-04T14:32:45.774Z,37.30
2018-11-04T14:35:15.174Z,30.27
2018-11-04T14:37:44.589Z,30.50
2018-11-04T14:40:15.158Z,33.70
2018-11-04T14:42:45.398Z,35.07
2018-11-04T14:45:15.019Z,30.13
2018-11-04T14:47:44.411Z,33.23
2018-11-04T14:50:17.307Z,25.90
2018-11-04T14:52:47.041Z,25.60
2018-11-04T14:55:16.382Z,24.53
2018-11-04T14:57:45.809Z,47.10
2018-11-04T15:00:16.247Z,68.40
2018-11-04T15:02:45.690Z,35.53
2018-11-04T15:05:15.082Z,26.50
2018-11-04T15:07:44.462Z,16.93
2018-11-04T15:10:14.990Z,17.83
2018-11-04T15:12:45.107Z,16.70
2018-11-04T15:15:16.149Z,19.87
2018-11-04T15:17:45.522Z,20.97
2018-11-04T15:20:14.929Z,19.03
2018-11-04T15:22:50.088Z,16.63
2018-11-04T15:25:21.643Z,19.70
2018-11-04T15:27:51.137Z,13.80
2018-11-04T15:30:20.812Z,13.35
2018-11-04T15:32:50.257Z,15.13
2018-11-04T15:35:20.846Z,12.93
2018-11-04T15:37:50.233Z,19.90
2018-11-04T15:40:20.923Z,18.07
2018-11-04T15:42:50.266Z,12.33
2018-11-04T15:45:20.811Z,16.34
2018-11-04T15:47:50.239Z,16.60
2018-11-04T15:50:20.874Z,17.33
2018-11-04T15:52:50.276Z,16.67
2018-11-04T15:55:20.939Z,16.23
2018-11-04T15:57:50.325Z,20.03
2018-11-04T16:00:20.794Z,13.76
2018-11-04T16:02:50.197Z,15.67
2018-11-04T16:05:20.900Z,15.73
2018-11-04T16:07:50.242Z,17.70
2018-11-04T16:10:20.870Z,20.40
2018-11-04T16:12:50.244Z,15.80
2018-11-04T16:15:20.897Z,18.90
2018-11-04T16:17:50.302Z,15.00
2018-11-04T16:20:20.843Z,19.56
2018-11-04T16:22:50.260Z,16.43
2018-11-04T16:25:20.913Z,18.87
2018-11-04T16:27:50.284Z,15.83
2018-11-04T16:30:20.850Z,20.24
2018-11-04T16:32:50.247Z,17.30
2018-11-04T16:35:20.879Z,20.00
2018-11-04T16:37:50.374Z,16.47
2018-11-04T16:40:21.055Z,16.83
2018-11-04T16:42:50.450Z,22.80
2018-11-04T16:45:20.836Z,17.23
2018-11-04T16:47:50.280Z,18.47
2018-11-04T16:50:20.920Z,19.23
2018-11-04T16:52:50.314Z,15.90
2018-11-04T16:55:21.042Z,20.17
2018-11-04T16:57:50.424Z,15.27
2018-11-04T17:00:20.870Z,14.45
2018-11-04T17:02:50.251Z,15.70
2018-11-04T17:05:21.118Z,15.27
2018-11-04T17:07:50.298Z,14.30
2018-11-04T17:10:20.927Z,17.13
2018-11-04T17:12:50.306Z,17.07
2018-11-04T17:15:20.988Z,12.93
2018-11-04T17:17:50.379Z,19.43
2018-11-04T17:20:20.866Z,21.14
2018-11-04T17:22:50.328Z,18.90
2018-11-04T17:25:20.971Z,21.27
2018-11-04T17:27:50.354Z,21.90
2018-11-04T17:30:20.995Z,21.00
2018-11-04T17:32:50.519Z,17.60
2018-11-04T17:35:20.954Z,16.75
2018-11-04T17:37:50.422Z,18.70
2018-11-04T17:40:21.123Z,16.98
2018-11-04T17:42:50.706Z,14.93
2018-11-04T17:45:21.104Z,20.02
2018-11-04T17:47:50.483Z,16.87
2018-11-04T17:50:21.075Z,17.95
2018-11-04T17:52:50.873Z,16.57
2018-11-04T17:55:21.069Z,16.82
2018-11-04T17:57:50.851Z,19.83
2018-11-04T18:00:21.131Z,18.87
2018-11-04T18:02:50.804Z,22.27
2018-11-04T18:05:21.415Z,20.40
2018-11-04T18:07:51.550Z,21.03
2018-11-04T18:10:22.185Z,24.90
2018-11-04T18:12:51.843Z,18.40
2018-11-04T18:15:22.215Z,22.43
2018-11-04T18:17:52.367Z,22.47
2018-11-04T18:20:22.900Z,20.30
2018-11-04T18:22:53.293Z,27.63
2018-11-04T18:25:22.868Z,17.47
2018-11-04T18:27:52.517Z,23.47
2018-11-04T18:30:23.394Z,22.30
2018-11-04T18:32:54.982Z,19.50
2018-11-04T18:35:26.314Z,20.43
2018-11-04T18:37:57.482Z,20.80
2018-11-04T18:40:29.064Z,16.97
2018-11-04T18:42:59.716Z,17.77
2018-11-04T18:45:30.163Z,22.67
2018-11-04T18:48:01.115Z,20.00
2018-11-04T18:50:32.100Z,22.33
2018-11-04T18:53:01.821Z,17.90
2018-11-04T18:55:32.031Z,21.43
2018-11-04T18:58:01.616Z,20.20
2018-11-04T19:00:31.127Z,21.57
2018-11-04T19:03:01.383Z,22.00
2018-11-04T19:05:31.276Z,27.90
2018-11-04T19:08:01.677Z,17.60
2018-11-04T19:10:32.768Z,17.07
2018-11-04T19:13:05.287Z,18.47
2018-11-04T19:15:36.457Z,20.10
2018-11-04T19:18:06.688Z,17.13
2018-11-04T19:20:37.543Z,22.40
2018-11-04T19:23:07.923Z,17.80
2018-11-04T19:25:37.765Z,22.20
2018-11-04T19:28:08.055Z,17.07
2018-11-04T19:30:38.896Z,19.80
2018-11-04T19:33:09.615Z,16.47
2018-11-04T19:35:41.035Z,15.20
2018-11-04T19:38:11.693Z,18.37
2018-11-04T19:40:43.653Z,16.30
2018-11-04T19:43:15.542Z,16.67
2018-11-04T19:45:47.055Z,14.10
2018-11-04T19:48:19.879Z,14.37
2018-11-04T19:50:53.140Z,17.13
2018-11-04T19:53:26.045Z,19.60
2018-11-04T19:55:58.925Z,18.73
2018-11-04T19:58:31.860Z,19.23
2018-11-04T20:01:03.818Z,17.83
2018-11-04T20:03:36.647Z,16.23
2018-11-04T20:06:09.871Z,15.32
2018-11-04T20:09:45.987Z,18.37
2018-11-04T20:12:23.419Z,17.60
2018-11-04T20:14:56.549Z,17.33
2018-11-04T20:17:29.371Z,20.03
2018-11-04T20:20:07.376Z,18.73
2018-11-04T20:22:40.672Z,22.20
2018-11-04T20:25:18.288Z,21.60
2018-11-04T20:27:50.951Z,21.20
2018-11-04T20:30:24.552Z,18.80
2018-11-04T20:33:05.405Z,20.77
2018-11-04T20:35:37.251Z,19.30
2018-11-04T20:38:09.247Z,19.77
2018-11-04T20:40:45.711Z,18.77
2018-11-04T20:43:17.007Z,18.00
2018-11-04T20:45:49.437Z,23.40
2018-11-04T20:48:25.733Z,17.17
2018-11-04T20:51:00.487Z,15.43
2018-11-04T20:53:30.752Z,18.40
2018-11-04T20:56:06.541Z,20.65
2018-11-04T20:58:36.585Z,16.10
2018-11-04T21:01:07.151Z,15.00
2018-11-04T21:03:37.212Z,14.10
2018-11-04T21:06:07.969Z,14.27
2018-11-04T21:08:37.841Z,14.40
2018-11-04T21:11:07.550Z,15.97
2018-11-04T21:13:37.447Z,12.90
2018-11-04T21:16:07.226Z,15.83
2018-11-04T21:18:36.557Z,15.30
2018-11-04T21:21:06.013Z,14.77
2018-11-04T21:23:35.878Z,16.47
2018-11-04T21:26:05.632Z,20.20
2018-11-04T21:28:35.325Z,18.40
2018-11-04T21:31:04.807Z,15.30
2018-11-04T21:33:34.190Z,16.50
2018-11-04T21:36:03.695Z,15.87
2018-11-04T21:38:33.093Z,15.87
2018-11-04T21:41:02.503Z,14.67
2018-11-04T21:43:32.367Z,22.90
2018-11-04T21:46:01.292Z,23.40
2018-11-04T21:48:30.742Z,19.00
2018-11-04T21:51:00.273Z,21.53
2018-11-04T21:53:29.835Z,21.00
2018-11-04T21:55:59.288Z,20.10
2018-11-04T21:58:28.646Z,18.20
2018-11-04T22:00:58.018Z,17.00
2018-11-04T22:03:27.483Z,14.60
2018-11-04T22:05:56.807Z,14.33
2018-11-04T22:08:26.202Z,17.73
2018-11-04T22:10:55.598Z,14.10
2018-11-04T22:13:24.978Z,17.13
2018-11-04T22:15:54.391Z,17.17
2018-11-04T22:18:23.842Z,16.27
2018-11-04T22:20:53.324Z,18.33
2018-11-04T22:23:22.758Z,18.73
2018-11-04T22:25:52.222Z,15.53
2018-11-04T22:28:21.706Z,20.90
2018-11-04T22:30:51.102Z,15.23
2018-11-04T22:33:20.514Z,15.67
2018-11-04T22:35:49.903Z,17.00
2018-11-04T22:38:19.285Z,15.67
2018-11-04T22:40:48.687Z,18.87
2018-11-04T22:43:18.089Z,13.50
2018-11-04T22:45:47.519Z,22.80
2018-11-04T22:48:16.920Z,19.13
2018-11-04T22:50:46.330Z,17.93
2018-11-04T22:53:15.695Z,18.10
2018-11-04T22:55:45.131Z,14.67
2018-11-04T22:58:14.531Z,16.30
2018-11-04T23:00:45.290Z,18.00
2018-11-04T23:03:14.666Z,15.30
2018-11-04T23:05:44.061Z,15.23
2018-11-04T23:08:13.459Z,15.77
2018-11-04T23:10:42.850Z,15.30
2018-11-04T23:13:12.247Z,18.17
2018-11-04T23:15:41.654Z,15.68
2018-11-04T23:18:11.058Z,16.63
2018-11-04T23:20:40.446Z,16.03
2018-11-04T23:23:09.850Z,14.37
2018-11-04T23:25:39.254Z,18.27
2018-11-04T23:28:08.642Z,19.00
2018-11-04T23:30:38.056Z,18.17
2018-11-04T23:33:07.446Z,18.27
2018-11-04T23:35:36.836Z,17.40
2018-11-04T23:38:06.279Z,17.63
2018-11-04T23:40:35.667Z,15.70
2018-11-04T23:43:05.168Z,16.13
2018-11-04T23:45:34.566Z,21.73
2018-11-04T23:48:04.049Z,19.33
2018-11-04T23:50:33.439Z,15.70
2018-11-04T23:53:02.851Z,21.43
2018-11-04T23:55:32.325Z,18.63
2018-11-04T23:58:01.685Z,17.17
